createdAt,value
2022-09-17T00:01:22.311Z,6.50
2022-09-17T00:03:55.897Z,5.00
2022-09-17T00:06:24.794Z,5.70
2022-09-17T00:08:56.723Z,1.00
2022-09-17T00:11:30.057Z,1.00
2022-09-17T00:14:00.814Z,1.00
2022-09-17T00:16:33.014Z,1.00
2022-09-17T00:19:00.995Z,1.00
2022-09-17T00:21:28.385Z,1.00
2022-09-17T00:24:05.155Z,1.00
2022-09-17T00:26:33.331Z,1.00
2022-09-17T00:29:03.622Z,1.00
2022-09-17T00:31:31.273Z,1.00
2022-09-17T00:34:05.193Z,3.70
2022-09-17T00:36:34.984Z,8.20
2022-09-17T00:39:01.690Z,13.30
2022-09-17T00:41:31.333Z,18.00
2022-09-17T00:44:00.871Z,18.20
2022-09-17T00:46:44.512Z,19.80
2022-09-17T00:49:19.585Z,22.80
2022-09-17T00:52:00.312Z,23.00
2022-09-17T00:54:28.362Z,26.90
2022-09-17T00:56:55.291Z,24.60
2022-09-17T00:59:23.335Z,29.60
2022-09-17T01:01:50.526Z,29.70
2022-09-17T01:04:24.238Z,42.40
2022-09-17T01:07:00.920Z,48.80
2022-09-17T01:09:48.895Z,54.60
2022-09-17T01:12:31.671Z,66.70
2022-09-17T01:15:26.118Z,69.40
2022-09-17T01:18:09.041Z,74.70
2022-09-17T01:20:50.858Z,78.50
2022-09-17T01:23:57.075Z,78.30
2022-09-17T01:27:02.619Z,80.40
2022-09-17T01:29:47.438Z,85.00
2022-09-17T01:32:31.176Z,90.90
2022-09-17T01:35:21.482Z,91.30
2022-09-17T01:38:19.023Z,95.20
2022-09-17T01:41:08.097Z,95.40
2022-09-17T01:43:42.466Z,99.30
2022-09-17T01:46:23.086Z,99.10
2022-09-17T01:48:57.901Z,99.90
2022-09-17T01:51:28.997Z,99.90
2022-09-17T01:54:03.086Z,99.90
2022-09-17T01:56:38.479Z,99.90
2022-09-17T01:59:17.312Z,99.90
2022-09-17T02:01:51.646Z,99.90
2022-09-17T02:04:37.361Z,99.90
2022-09-17T02:07:09.080Z,99.90
2022-09-17T02:09:52.043Z,99.90
2022-09-17T02:12:23.359Z,99.90
2022-09-17T02:14:53.999Z,99.90
2022-09-17T02:17:49.794Z,99.90
2022-09-17T02:20:22.179Z,99.90
2022-09-17T02:23:02.586Z,99.90
2022-09-17T02:25:37.691Z,99.90
2022-09-17T02:28:17.465Z,99.90
2022-09-17T02:30:44.529Z,99.90
2022-09-17T02:33:14.702Z,99.90
2022-09-17T02:35:44.063Z,99.90
2022-09-17T02:38:11.427Z,99.90
2022-09-17T02:40:48.841Z,99.90
2022-09-17T02:43:56.378Z,99.90
2022-09-17T02:46:53.955Z,99.90
2022-09-17T02:49:50.191Z,99.90
2022-09-17T02:52:34.980Z,99.90
2022-09-17T02:55:12.998Z,99.90
2022-09-17T02:57:54.415Z,99.90
2022-09-17T03:00:22.995Z,99.90
2022-09-17T03:02:56.268Z,99.90
2022-09-17T03:05:25.071Z,99.90
2022-09-17T03:07:51.876Z,99.90
2022-09-17T03:10:20.017Z,99.90
2022-09-17T03:12:46.884Z,99.90
2022-09-17T03:15:13.707Z,99.90
2022-09-17T03:17:40.639Z,99.90
2022-09-17T03:20:08.138Z,99.90
2022-09-17T03:22:35.727Z,99.90
2022-09-17T03:25:02.427Z,99.90
2022-09-17T03:27:29.157Z,99.90
2022-09-17T03:29:56.227Z,99.90
2022-09-17T03:32:22.905Z,99.90
2022-09-17T03:34:49.553Z,99.90
2022-09-17T03:37:16.360Z,99.90
2022-09-17T03:39:43.127Z,99.90
2022-09-17T03:42:09.774Z,99.90
2022-09-17T03:44:36.500Z,99.90
2022-09-17T03:47:03.314Z,99.90
2022-09-17T03:49:29.980Z,99.90
2022-09-17T03:51:56.770Z,99.90
2022-09-17T03:54:23.463Z,99.90
2022-09-17T03:56:50.144Z,99.90
2022-09-17T03:59:16.914Z,99.90
2022-09-17T04:01:43.964Z,99.90
2022-09-17T04:04:10.938Z,99.90
2022-09-17T04:06:37.681Z,99.90
2022-09-17T04:09:05.432Z,99.90
2022-09-17T04:11:32.188Z,99.90
2022-09-17T04:13:59.066Z,99.90
2022-09-17T04:16:25.836Z,99.90
2022-09-17T04:18:52.679Z,99.90
2022-09-17T04:21:19.426Z,99.90
2022-09-17T04:23:46.286Z,99.90
2022-09-17T04:26:13.092Z,99.90
2022-09-17T04:28:39.763Z,99.90
2022-09-17T04:31:06.514Z,99.90
2022-09-17T04:33:33.368Z,99.90
2022-09-17T04:36:00.078Z,99.90
2022-09-17T04:38:26.770Z,99.90
2022-09-17T04:40:54.547Z,99.90
2022-09-17T04:43:21.248Z,99.90
2022-09-17T04:45:48.441Z,99.90
2022-09-17T04:48:15.158Z,99.90
2022-09-17T04:50:41.997Z,99.90
2022-09-17T04:53:08.695Z,99.90
2022-09-17T04:55:35.384Z,99.90
2022-09-17T04:58:02.080Z,99.90
2022-09-17T05:00:28.796Z,99.90
2022-09-17T05:02:56.097Z,99.90
2022-09-17T05:05:25.505Z,99.90
2022-09-17T05:07:52.194Z,99.90
2022-09-17T05:10:21.041Z,99.90
2022-09-17T05:12:52.516Z,99.90
2022-09-17T05:15:19.928Z,99.90
2022-09-17T05:17:47.272Z,99.90
2022-09-17T05:20:15.319Z,99.90
2022-09-17T05:22:50.552Z,99.90
2022-09-17T05:25:19.670Z,99.90
2022-09-17T05:27:46.489Z,99.90
2022-09-17T05:30:13.482Z,99.90
2022-09-17T05:32:40.825Z,99.90
2022-09-17T05:35:08.588Z,99.90
2022-09-17T05:37:35.313Z,99.90
2022-09-17T05:40:04.793Z,99.90
2022-09-17T05:42:31.609Z,99.90
2022-09-17T05:44:58.445Z,99.90
2022-09-17T05:47:26.285Z,99.90
2022-09-17T05:49:52.967Z,99.90
2022-09-17T05:52:19.702Z,99.90
2022-09-17T05:54:46.780Z,99.90
2022-09-17T05:57:13.518Z,99.90
2022-09-17T05:59:40.181Z,99.90
2022-09-17T06:02:06.935Z,99.90
2022-09-17T06:04:35.130Z,99.90
2022-09-17T06:07:07.363Z,99.90
2022-09-17T06:09:37.455Z,99.90
2022-09-17T06:12:05.372Z,99.90
2022-09-17T06:14:32.215Z,99.90
2022-09-17T06:16:58.978Z,99.90
2022-09-17T06:19:25.722Z,99.90
2022-09-17T06:21:52.381Z,99.90
2022-09-17T06:24:19.039Z,99.90
2022-09-17T06:26:45.883Z,99.90
2022-09-17T06:29:15.159Z,99.90
2022-09-17T06:31:44.956Z,99.90
2022-09-17T06:34:12.379Z,99.90
2022-09-17T06:36:39.207Z,99.90
2022-09-17T06:39:06.537Z,99.90
2022-09-17T06:41:33.459Z,99.90
2022-09-17T06:44:00.286Z,99.90
2022-09-17T06:46:27.613Z,99.90
2022-09-17T06:48:54.315Z,99.90
2022-09-17T06:51:22.588Z,99.90
2022-09-17T06:53:49.393Z,99.90
2022-09-17T06:56:16.644Z,99.90
2022-09-17T06:58:43.894Z,99.90
2022-09-17T07:01:12.334Z,99.90
2022-09-17T07:03:39.582Z,99.90
2022-09-17T07:06:12.709Z,99.90
2022-09-17T07:08:39.787Z,99.90
2022-09-17T07:11:08.118Z,99.90
2022-09-17T07:13:35.128Z,99.90
2022-09-17T07:16:03.948Z,99.90
2022-09-17T07:18:30.857Z,99.90
2022-09-17T07:21:00.272Z,99.90
2022-09-17T07:23:29.319Z,99.90
2022-09-17T07:25:58.646Z,99.90
2022-09-17T07:28:26.097Z,99.90
2022-09-17T07:30:53.643Z,99.90
2022-09-17T07:33:23.472Z,99.90
2022-09-17T07:36:01.636Z,99.90
2022-09-17T07:38:29.720Z,99.90
2022-09-17T07:41:04.933Z,99.90
2022-09-17T07:43:33.525Z,99.90
2022-09-17T07:46:02.039Z,99.90
2022-09-17T07:48:29.602Z,99.90
2022-09-17T07:50:56.859Z,99.90
2022-09-17T07:53:23.842Z,99.90
2022-09-17T07:55:58.630Z,99.90
2022-09-17T07:58:31.040Z,99.90
2022-09-17T08:01:05.632Z,99.90
2022-09-17T08:03:32.681Z,99.90
2022-09-17T08:06:07.148Z,99.90
2022-09-17T08:08:35.901Z,99.90
2022-09-17T08:11:04.568Z,99.90
2022-09-17T08:13:32.112Z,99.90
2022-09-17T08:16:05.433Z,99.90
2022-09-17T08:18:32.863Z,99.90
2022-09-17T08:21:01.165Z,99.90
2022-09-17T08:23:28.833Z,99.90
2022-09-17T08:25:57.032Z,99.90
2022-09-17T08:28:25.569Z,99.90
2022-09-17T08:30:53.178Z,99.90
2022-09-17T08:33:20.905Z,99.90
2022-09-17T08:35:59.731Z,99.90
2022-09-17T08:38:37.214Z,99.90
2022-09-17T08:41:11.592Z,99.90
2022-09-17T08:43:53.147Z,99.90
2022-09-17T08:46:19.998Z,99.30
2022-09-17T08:48:56.396Z,98.40
2022-09-17T08:51:48.803Z,98.90
2022-09-17T08:54:22.213Z,93.00
2022-09-17T08:56:58.712Z,92.80
2022-09-17T08:59:34.834Z,91.10
2022-09-17T09:02:33.848Z,89.30
2022-09-17T09:05:15.814Z,87.00
2022-09-17T09:08:14.766Z,87.90
2022-09-17T09:10:46.096Z,84.30
2022-09-17T09:13:17.659Z,83.80
2022-09-17T09:15:49.140Z,62.70
2022-09-17T09:18:25.878Z,68.40
2022-09-17T09:21:07.375Z,45.30
2022-09-17T09:24:01.705Z,50.90
2022-09-17T09:27:15.292Z,56.20
2022-09-17T09:30:06.560Z,55.00
2022-09-17T09:32:55.654Z,57.80
2022-09-17T09:35:35.866Z,59.30
2022-09-17T09:38:27.664Z,61.10
2022-09-17T09:41:11.643Z,72.30
2022-09-17T09:44:12.585Z,74.10
2022-09-17T09:47:07.760Z,51.60
2022-09-17T09:49:56.296Z,60.60
2022-09-17T09:52:44.983Z,44.50
2022-09-17T09:55:26.695Z,21.70
2022-09-17T09:58:19.597Z,6.90
2022-09-17T10:00:47.680Z,20.80
2022-09-17T10:03:32.388Z,6.80
2022-09-17T10:06:04.734Z,9.50
2022-09-17T10:08:34.511Z,15.50
2022-09-17T10:11:21.664Z,21.20
2022-09-17T10:13:48.506Z,24.50
2022-09-17T10:16:23.594Z,13.70
2022-09-17T10:19:10.964Z,7.30
2022-09-17T10:21:40.689Z,1.00
2022-09-17T10:24:27.835Z,1.00
2022-09-17T10:27:15.494Z,1.00
2022-09-17T10:29:47.485Z,1.00
2022-09-17T10:32:19.447Z,1.00
2022-09-17T10:35:04.888Z,1.00
2022-09-17T10:37:36.031Z,1.00
2022-09-17T10:40:22.890Z,1.00
2022-09-17T10:43:21.408Z,1.00
2022-09-17T10:45:58.945Z,1.00
2022-09-17T10:48:39.925Z,1.00
2022-09-17T10:51:08.961Z,1.00
2022-09-17T10:53:59.092Z,17.10
2022-09-17T10:56:33.556Z,19.00
2022-09-17T10:59:22.551Z,24.30
2022-09-17T11:01:56.648Z,26.90
2022-09-17T11:04:51.954Z,15.80
2022-09-17T11:07:34.228Z,26.20
2022-09-17T11:10:10.039Z,20.80
2022-09-17T11:13:13.130Z,23.20
2022-09-17T11:16:06.705Z,29.30
2022-09-17T11:19:06.789Z,45.70
2022-09-17T11:22:05.615Z,44.10
2022-09-17T11:24:51.107Z,44.60
2022-09-17T11:27:26.553Z,38.40
2022-09-17T11:30:15.779Z,32.30
2022-09-17T11:33:01.793Z,37.30
2022-09-17T11:35:36.748Z,27.40
2022-09-17T11:38:25.562Z,24.60
2022-09-17T11:41:11.049Z,34.20
2022-09-17T11:43:46.507Z,1.00
2022-09-17T11:46:29.719Z,1.00
2022-09-17T11:49:01.779Z,1.00
2022-09-17T11:51:31.811Z,1.00
2022-09-17T11:54:19.102Z,1.00
2022-09-17T11:56:49.717Z,1.00
2022-09-17T11:59:37.920Z,1.00
2022-09-17T12:02:44.028Z,1.00
2022-09-17T12:05:31.718Z,1.00
2022-09-17T12:08:14.482Z,1.00
2022-09-17T12:10:49.884Z,1.00
2022-09-17T12:13:22.370Z,1.00
2022-09-17T12:15:54.411Z,1.00
2022-09-17T12:18:58.930Z,1.00
2022-09-17T12:21:37.047Z,1.00
2022-09-17T12:24:19.145Z,1.00
2022-09-17T12:27:01.242Z,1.00
2022-09-17T12:29:38.513Z,1.00
2022-09-17T12:32:27.148Z,1.00
2022-09-17T12:35:05.902Z,1.00
2022-09-17T12:37:46.126Z,1.00
2022-09-17T12:40:25.301Z,1.00
2022-09-17T12:43:06.849Z,1.00
2022-09-17T12:45:50.505Z,1.00
2022-09-17T12:48:41.751Z,1.00
2022-09-17T12:51:14.197Z,1.00
2022-09-17T12:54:03.523Z,1.00
2022-09-17T12:56:48.572Z,1.00
2022-09-17T12:59:19.430Z,1.00
2022-09-17T13:02:18.142Z,1.00
2022-09-17T13:05:13.098Z,1.00
2022-09-17T13:07:45.941Z,1.00
2022-09-17T13:10:15.353Z,1.00
2022-09-17T13:13:11.367Z,1.00
2022-09-17T13:16:13.312Z,1.00
2022-09-17T13:19:22.022Z,1.00
2022-09-17T13:22:07.106Z,1.00
2022-09-17T13:24:35.071Z,1.00
2022-09-17T13:27:04.456Z,9.30
2022-09-17T13:29:46.570Z,23.50
2022-09-17T13:32:35.195Z,26.20
2022-09-17T13:35:14.586Z,23.30
2022-09-17T13:37:56.708Z,20.80
2022-09-17T13:40:26.472Z,14.10
2022-09-17T13:42:59.314Z,1.00
2022-09-17T13:45:26.705Z,1.00
2022-09-17T13:48:11.632Z,1.00
2022-09-17T13:50:43.646Z,1.00
2022-09-17T13:53:27.634Z,1.00
2022-09-17T13:56:01.064Z,1.00
2022-09-17T13:58:43.241Z,1.00
2022-09-17T14:01:13.587Z,1.00
2022-09-17T14:03:48.783Z,1.00
2022-09-17T14:06:15.430Z,1.00
2022-09-17T14:08:45.195Z,1.00
2022-09-17T14:11:24.349Z,1.00
2022-09-17T14:13:55.382Z,1.00
2022-09-17T14:16:37.726Z,1.00
2022-09-17T14:19:16.976Z,1.00
2022-09-17T14:22:00.936Z,1.00
2022-09-17T14:24:43.408Z,1.00
2022-09-17T14:27:28.631Z,1.00
2022-09-17T14:30:18.269Z,1.00
2022-09-17T14:33:08.799Z,1.00
2022-09-17T14:35:41.617Z,1.00
2022-09-17T14:38:28.883Z,1.00
2022-09-17T14:41:17.829Z,1.00
2022-09-17T14:44:05.615Z,1.00
2022-09-17T14:46:49.940Z,1.00
2022-09-17T14:49:30.469Z,1.00
2022-09-17T14:51:58.677Z,1.00
2022-09-17T14:54:35.102Z,1.00
2022-09-17T14:57:34.556Z,1.00
2022-09-17T15:00:01.489Z,1.00
2022-09-17T15:02:44.096Z,1.00
2022-09-17T15:05:36.209Z,1.00
2022-09-17T15:08:10.412Z,1.00
2022-09-17T15:10:48.094Z,1.00
2022-09-17T15:13:19.011Z,1.00
2022-09-17T15:16:16.564Z,1.00
2022-09-17T15:19:02.391Z,1.00
2022-09-17T15:21:36.747Z,1.00
2022-09-17T15:24:37.413Z,1.00
2022-09-17T15:27:21.064Z,1.00
2022-09-17T15:29:51.506Z,1.00
2022-09-17T15:32:19.264Z,1.00
2022-09-17T15:34:46.330Z,1.00
2022-09-17T15:37:21.826Z,1.00
2022-09-17T15:39:54.189Z,1.00
2022-09-17T15:42:27.787Z,1.00
2022-09-17T15:45:21.670Z,1.00
2022-09-17T15:47:49.589Z,1.00
2022-09-17T15:50:47.886Z,1.00
2022-09-17T15:53:21.950Z,1.00
2022-09-17T15:56:13.157Z,1.00
2022-09-17T15:58:43.089Z,1.00
2022-09-17T16:01:16.024Z,1.60
2022-09-17T16:03:45.767Z,1.00
2022-09-17T16:06:18.254Z,1.00
2022-09-17T16:08:56.212Z,1.20
2022-09-17T16:11:25.435Z,4.40
2022-09-17T16:13:54.666Z,6.50
2022-09-17T16:16:24.027Z,1.00
2022-09-17T16:18:51.129Z,1.00
2022-09-17T16:21:19.458Z,1.00
2022-09-17T16:23:46.779Z,1.00
2022-09-17T16:26:20.362Z,1.00
2022-09-17T16:28:50.612Z,1.00
2022-09-17T16:31:17.317Z,1.00
2022-09-17T16:33:44.017Z,1.00
2022-09-17T16:36:10.828Z,1.00
2022-09-17T16:38:38.779Z,1.00
2022-09-17T16:41:06.090Z,1.00
2022-09-17T16:43:33.797Z,1.00
2022-09-17T16:46:09.123Z,1.00
2022-09-17T16:48:36.220Z,1.00
2022-09-17T16:51:10.886Z,1.00
2022-09-17T16:53:38.774Z,1.00
2022-09-17T16:56:09.429Z,1.00
2022-09-17T16:58:36.413Z,1.00
2022-09-17T17:01:13.413Z,1.00
2022-09-17T17:03:40.551Z,1.00
2022-09-17T17:06:15.272Z,1.00
2022-09-17T17:08:41.945Z,1.00
2022-09-17T17:11:08.613Z,1.00
2022-09-17T17:13:35.630Z,1.00
2022-09-17T17:16:09.542Z,1.00
2022-09-17T17:18:36.639Z,1.00
2022-09-17T17:21:11.629Z,1.00
2022-09-17T17:23:38.407Z,1.00
2022-09-17T17:26:06.180Z,1.00
2022-09-17T17:28:35.193Z,1.00
2022-09-17T17:31:03.360Z,1.00
2022-09-17T17:33:30.243Z,1.00
2022-09-17T17:36:03.987Z,1.00
2022-09-17T17:38:34.176Z,1.00
2022-09-17T17:41:08.229Z,1.00
2022-09-17T17:43:35.427Z,1.00
2022-09-17T17:46:04.830Z,1.00
2022-09-17T17:48:31.534Z,1.00
2022-09-17T17:51:06.508Z,1.00
2022-09-17T17:53:33.293Z,1.00
2022-09-17T17:56:01.887Z,1.00
2022-09-17T17:58:28.778Z,1.00
2022-09-17T18:00:55.948Z,1.00
2022-09-17T18:03:25.210Z,1.00
2022-09-17T18:05:56.305Z,1.00
2022-09-17T18:08:24.299Z,3.70
2022-09-17T18:10:56.049Z,5.20
2022-09-17T18:13:24.070Z,5.90
2022-09-17T18:15:56.566Z,7.80
2022-09-17T18:18:24.373Z,9.30
2022-09-17T18:20:53.344Z,11.00
2022-09-17T18:23:21.045Z,9.10
2022-09-17T18:25:55.117Z,10.40
2022-09-17T18:28:22.628Z,10.90
2022-09-17T18:30:50.071Z,12.20
2022-09-17T18:33:21.784Z,12.80
2022-09-17T18:35:48.558Z,13.20
2022-09-17T18:38:16.490Z,14.20
2022-09-17T18:40:44.288Z,15.80
2022-09-17T18:43:11.032Z,17.90
2022-09-17T18:45:37.918Z,19.40
2022-09-17T18:48:05.963Z,21.30
2022-09-17T18:50:33.210Z,22.40
2022-09-17T18:53:00.160Z,24.40
2022-09-17T18:55:27.253Z,26.30
2022-09-17T18:57:57.068Z,25.20
2022-09-17T19:00:24.556Z,26.70
2022-09-17T19:02:51.374Z,27.10
2022-09-17T19:05:18.125Z,26.10
2022-09-17T19:07:48.553Z,26.60
2022-09-17T19:10:15.679Z,27.20
2022-09-17T19:12:42.552Z,30.00
2022-09-17T19:15:10.512Z,32.70
2022-09-17T19:17:37.541Z,32.90
2022-09-17T19:20:05.131Z,35.00
2022-09-17T19:22:32.549Z,35.90
2022-09-17T19:24:59.689Z,37.90
2022-09-17T19:27:26.565Z,39.40
2022-09-17T19:29:53.587Z,39.30
2022-09-17T19:32:20.717Z,40.60
2022-09-17T19:34:47.628Z,41.20
2022-09-17T19:37:14.439Z,40.10
2022-09-17T19:39:41.249Z,41.10
2022-09-17T19:42:08.127Z,43.10
2022-09-17T19:44:34.826Z,44.20
2022-09-17T19:47:01.596Z,44.40
2022-09-17T19:49:28.320Z,48.00
2022-09-17T19:51:55.247Z,55.90
2022-09-17T19:54:22.213Z,56.30
2022-09-17T19:56:49.023Z,56.60
2022-09-17T19:59:15.710Z,58.80
2022-09-17T20:01:46.100Z,61.30
2022-09-17T20:04:18.341Z,64.30
2022-09-17T20:06:47.203Z,63.80
2022-09-17T20:09:13.927Z,64.30
2022-09-17T20:11:42.153Z,64.50
2022-09-17T20:14:10.755Z,62.50
2022-09-17T20:16:39.163Z,60.70
2022-09-17T20:19:07.262Z,54.50
2022-09-17T20:21:34.305Z,50.50
2022-09-17T20:24:01.315Z,47.20
2022-09-17T20:26:28.342Z,48.20
2022-09-17T20:28:55.662Z,47.30
2022-09-17T20:31:25.027Z,48.90
2022-09-17T20:33:56.868Z,48.50
2022-09-17T20:36:33.537Z,49.60
2022-09-17T20:39:21.933Z,51.60
2022-09-17T20:41:51.188Z,49.70
2022-09-17T20:44:17.981Z,47.00
2022-09-17T20:46:48.527Z,46.20
2022-09-17T20:49:19.011Z,47.30
2022-09-17T20:51:45.893Z,48.20
2022-09-17T20:54:15.014Z,47.50
2022-09-17T20:56:44.353Z,49.30
2022-09-17T20:59:19.574Z,48.90
2022-09-17T21:01:51.328Z,50.00
2022-09-17T21:04:20.088Z,50.60
2022-09-17T21:06:47.716Z,49.30
2022-09-17T21:09:15.880Z,48.90
2022-09-17T21:11:47.418Z,48.30
2022-09-17T21:14:18.553Z,48.50
2022-09-17T21:16:45.853Z,47.20
2022-09-17T21:19:16.716Z,47.80
2022-09-17T21:21:43.995Z,48.50
2022-09-17T21:24:13.500Z,49.00
2022-09-17T21:26:40.293Z,50.50
2022-09-17T21:29:07.033Z,52.20
2022-09-17T21:31:37.068Z,56.00
2022-09-17T21:34:06.618Z,57.90
2022-09-17T21:36:37.340Z,58.30
2022-09-17T21:39:07.746Z,61.60
2022-09-17T21:41:37.589Z,62.80
2022-09-17T21:44:06.759Z,64.30
2022-09-17T21:46:35.367Z,64.70
2022-09-17T21:49:03.244Z,67.90
2022-09-17T21:51:43.822Z,71.70
2022-09-17T21:54:18.324Z,71.70
2022-09-17T21:56:46.103Z,72.30
2022-09-17T21:59:14.583Z,73.10
2022-09-17T22:01:47.341Z,73.60
2022-09-17T22:04:17.589Z,72.60
2022-09-17T22:06:48.320Z,72.30
2022-09-17T22:09:18.674Z,71.00
2022-09-17T22:11:49.450Z,71.40
2022-09-17T22:14:19.618Z,70.40
2022-09-17T22:16:48.953Z,70.00
2022-09-17T22:19:18.020Z,69.50
2022-09-17T22:21:47.437Z,67.70
2022-09-17T22:24:16.122Z,64.20
2022-09-17T22:26:45.927Z,64.70
2022-09-17T22:29:18.596Z,62.30
2022-09-17T22:31:46.412Z,61.30
2022-09-17T22:34:15.615Z,59.30
2022-09-17T22:36:42.316Z,57.70
2022-09-17T22:39:09.853Z,58.60
2022-09-17T22:41:44.439Z,58.80
2022-09-17T22:44:19.636Z,59.80
2022-09-17T22:46:48.633Z,60.20
2022-09-17T22:49:15.675Z,61.50
2022-09-17T22:51:44.365Z,61.40
2022-09-17T22:54:14.306Z,61.20
2022-09-17T22:56:44.722Z,61.00
2022-09-17T22:59:11.582Z,61.40
2022-09-17T23:01:40.324Z,59.30
2022-09-17T23:04:07.678Z,58.60
2022-09-17T23:06:41.071Z,58.10
2022-09-17T23:09:09.345Z,57.70
2022-09-17T23:11:39.938Z,58.70
2022-09-17T23:14:12.103Z,57.90
2022-09-17T23:16:44.723Z,58.50
2022-09-17T23:19:12.817Z,57.00
2022-09-17T23:21:40.393Z,58.20
2022-09-17T23:24:07.733Z,58.80
2022-09-17T23:26:34.819Z,61.10
2022-09-17T23:29:05.372Z,62.40
2022-09-17T23:31:34.748Z,63.30
2022-09-17T23:34:02.167Z,63.00
2022-09-17T23:36:31.830Z,63.10
2022-09-17T23:38:59.691Z,64.10
2022-09-17T23:41:32.222Z,65.10
2022-09-17T23:44:04.154Z,65.60
2022-09-17T23:46:33.425Z,67.40
2022-09-17T23:49:00.618Z,67.40
2022-09-17T23:51:30.695Z,67.30
2022-09-17T23:53:58.519Z,69.00
2022-09-17T23:56:27.223Z,70.00
2022-09-17T23:58:55.747Z,71.30
